sensor_id;sensor_type;location;lat;lon;timestamp;pressure;altitude;pressure_sealevel;temperature;humidity
17309;BME280;8772;42.804;23.426;2022-12-18T00:02:12;74556.47;;;-140.58;100.00
17309;BME280;8772;42.804;23.426;2022-12-18T00:04:39;74568.78;;;-140.58;100.00
17309;BME280;8772;42.804;23.426;2022-12-18T00:07:06;74574.94;;;-140.58;100.00
17309;BME280;8772;42.804;23.426;2022-12-18T00:09:33;74579.03;;;-140.58;100.00
17309;BME280;8772;42.804;23.426;2022-12-18T00:12:00;74585.19;;;-140.58;100.00
17309;BME280;8772;42.804;23.426;2022-12-18T00:14:28;74589.28;;;-140.58;100.00
17309;BME280;8772;42.804;23.426;2022-12-18T00:16:55;74605.72;;;-140.58;100.00
17309;BME280;8772;42.804;23.426;2022-12-18T00:19:23;74618.03;;;-140.58;100.00
17309;BME280;8772;42.804;23.426;2022-12-18T00:21:50;74618.03;;;-140.58;100.00
17309;BME280;8772;42.804;23.426;2022-12-18T00:24:17;74630.34;;;-140.58;100.00
17309;BME280;8772;42.804;23.426;2022-12-18T00:26:44;74634.44;;;-140.58;100.00
17309;BME280;8772;42.804;23.426;2022-12-18T00:29:12;74650.84;;;-140.58;100.00
17309;BME280;8772;42.804;23.426;2022-12-18T00:31:42;74654.97;;;-140.58;100.00
17309;BME280;8772;42.804;23.426;2022-12-18T00:34:10;74659.06;;;-140.58;100.00
17309;BME280;8772;42.804;23.426;2022-12-18T00:36:39;74667.28;;;-140.58;100.00
17309;BME280;8772;42.804;23.426;2022-12-18T00:39:06;74683.69;;;-140.58;100.00
17309;BME280;8772;42.804;23.426;2022-12-18T00:41:33;74687.78;;;-140.58;100.00
17309;BME280;8772;42.804;23.426;2022-12-18T00:44:18;74689.84;;;-140.58;100.00
17309;BME280;8772;42.804;23.426;2022-12-18T00:46:47;74704.19;;;-140.58;100.00
17309;BME280;8772;42.804;23.426;2022-12-18T00:49:15;74708.31;;;-140.58;100.00
17309;BME280;8772;42.804;23.426;2022-12-18T00:51:42;74708.31;;;-140.58;100.00
17309;BME280;8772;42.804;23.426;2022-12-18T00:54:09;74708.31;;;-140.58;100.00
17309;BME280;8772;42.804;23.426;2022-12-18T00:56:37;74708.31;;;-140.58;100.00
17309;BME280;8772;42.804;23.426;2022-12-18T00:59:04;74716.50;;;-140.58;100.00
17309;BME280;8772;42.804;23.426;2022-12-18T01:01:31;74712.41;;;-140.58;100.00
17309;BME280;8772;42.804;23.426;2022-12-18T01:07:22;74712.41;;;-140.58;100.00
17309;BME280;8772;42.804;23.426;2022-12-18T01:09:49;74714.47;;;-140.58;100.00
17309;BME280;8772;42.804;23.426;2022-12-18T01:12:16;74714.47;;;-140.58;100.00
17309;BME280;8772;42.804;23.426;2022-12-18T01:14:42;74706.25;;;-140.58;100.00
17309;BME280;8772;42.804;23.426;2022-12-18T01:17:09;74712.41;;;-140.58;100.00
17309;BME280;8772;42.804;23.426;2022-12-18T01:19:36;74726.78;;;-140.58;100.00
17309;BME280;8772;42.804;23.426;2022-12-18T01:22:03;74716.50;;;-140.58;100.00
17309;BME280;8772;42.804;23.426;2022-12-18T01:24:31;74737.03;;;-140.58;100.00
17309;BME280;8772;42.804;23.426;2022-12-18T01:26:58;74730.88;;;-140.58;100.00
17309;BME280;8772;42.804;23.426;2022-12-18T01:29:25;74730.88;;;-140.58;100.00
17309;BME280;8772;42.804;23.426;2022-12-18T01:31:54;74732.94;;;-140.58;100.00
17309;BME280;8772;42.804;23.426;2022-12-18T01:34:21;74732.94;;;-140.58;100.00
17309;BME280;8772;42.804;23.426;2022-12-18T01:36:48;74734.97;;;-140.58;100.00
17309;BME280;8772;42.804;23.426;2022-12-18T01:39:17;74747.28;;;-140.58;100.00
17309;BME280;8772;42.804;23.426;2022-12-18T01:41:46;74747.28;;;-140.58;100.00
17309;BME280;8772;42.804;23.426;2022-12-18T01:44:57;74755.50;;;-140.58;100.00
17309;BME280;8772;42.804;23.426;2022-12-18T01:47:27;74769.88;;;-140.58;100.00
17309;BME280;8772;42.804;23.426;2022-12-18T01:49:56;74790.38;;;-140.58;100.00
17309;BME280;8772;42.804;23.426;2022-12-18T01:52:25;74794.50;;;-140.58;100.00
17309;BME280;8772;42.804;23.426;2022-12-18T01:54:53;74802.69;;;-140.58;100.00
17309;BME280;8772;42.804;23.426;2022-12-18T01:57:23;74817.06;;;-140.58;100.00
17309;BME280;8772;42.804;23.426;2022-12-18T01:59:52;74829.38;;;-140.58;100.00
17309;BME280;8772;42.804;23.426;2022-12-18T02:02:21;74841.69;;;-140.58;100.00
17309;BME280;8772;42.804;23.426;2022-12-18T02:04:48;74847.84;;;-140.58;100.00
17309;BME280;8772;42.804;23.426;2022-12-18T02:07:20;74864.25;;;-140.58;100.00
17309;BME280;8772;42.804;23.426;2022-12-18T02:09:55;74872.47;;;-140.58;100.00
17309;BME280;8772;42.804;23.426;2022-12-18T02:12:31;74874.53;;;-140.58;100.00
17309;BME280;8772;42.804;23.426;2022-12-18T02:15:08;74870.41;;;-140.58;100.00
17309;BME280;8772;42.804;23.426;2022-12-18T02:17:38;74884.78;;;-140.58;100.00
17309;BME280;8772;42.804;23.426;2022-12-18T02:20:13;74876.56;;;-140.58;100.00
17309;BME280;8772;42.804;23.426;2022-12-18T02:22:53;74886.84;;;-140.58;100.00
17309;BME280;8772;42.804;23.426;2022-12-18T02:25:38;74897.09;;;-140.58;100.00
17309;BME280;8772;42.804;23.426;2022-12-18T02:28:11;74893.00;;;-140.58;100.00
17309;BME280;8772;42.804;23.426;2022-12-18T02:30:41;74901.19;;;-140.58;100.00
17309;BME280;8772;42.804;23.426;2022-12-18T02:33:11;74897.09;;;-140.58;100.00
17309;BME280;8772;42.804;23.426;2022-12-18T02:35:40;74909.41;;;-140.58;100.00
17309;BME280;8772;42.804;23.426;2022-12-18T02:38:09;74911.47;;;-140.58;100.00
17309;BME280;8772;42.804;23.426;2022-12-18T02:40:37;74909.41;;;-140.58;100.00
17309;BME280;8772;42.804;23.426;2022-12-18T02:43:09;74913.50;;;-140.58;100.00
17309;BME280;8772;42.804;23.426;2022-12-18T02:45:45;74903.25;;;-140.58;100.00
17309;BME280;8772;42.804;23.426;2022-12-18T02:48:12;74905.31;;;-140.58;100.00
17309;BME280;8772;42.804;23.426;2022-12-18T02:50:45;74915.56;;;-140.58;100.00
17309;BME280;8772;42.804;23.426;2022-12-18T02:53:24;74919.66;;;-140.58;100.00
17309;BME280;8772;42.804;23.426;2022-12-18T02:56:01;74925.81;;;-140.58;100.00
17309;BME280;8772;42.804;23.426;2022-12-18T02:58:36;74936.09;;;-140.58;100.00
17309;BME280;8772;42.804;23.426;2022-12-18T03:01:11;74940.19;;;-140.58;100.00
17309;BME280;8772;42.804;23.426;2022-12-18T03:03:45;74946.34;;;-140.58;100.00
17309;BME280;8772;42.804;23.426;2022-12-18T03:06:21;74952.50;;;-140.58;100.00
17309;BME280;8772;42.804;23.426;2022-12-18T03:08:54;74946.34;;;-140.58;100.00
17309;BME280;8772;42.804;23.426;2022-12-18T03:11:23;74960.72;;;-140.58;100.00
17309;BME280;8772;42.804;23.426;2022-12-18T03:14:07;74950.44;;;-140.58;100.00
17309;BME280;8772;42.804;23.426;2022-12-18T03:16:34;74962.75;;;-140.58;100.00
17309;BME280;8772;42.804;23.426;2022-12-18T03:19:05;74962.75;;;-140.58;100.00
17309;BME280;8772;42.804;23.426;2022-12-18T03:21:37;74952.50;;;-140.58;100.00
17309;BME280;8772;42.804;23.426;2022-12-18T03:24:07;74958.66;;;-140.58;100.00
17309;BME280;8772;42.804;23.426;2022-12-18T03:26:36;74960.72;;;-140.58;100.00
17309;BME280;8772;42.804;23.426;2022-12-18T03:29:11;74966.88;;;-140.58;100.00
17309;BME280;8772;42.804;23.426;2022-12-18T03:31:41;74970.97;;;-140.58;100.00
17309;BME280;8772;42.804;23.426;2022-12-18T03:34:14;74973.03;;;-140.58;100.00
17309;BME280;8772;42.804;23.426;2022-12-18T03:36:42;74970.97;;;-140.58;100.00
17309;BME280;8772;42.804;23.426;2022-12-18T03:39:09;74979.19;;;-140.58;100.00
17309;BME280;8772;42.804;23.426;2022-12-18T03:41:43;74991.50;;;-140.58;100.00
17309;BME280;8772;42.804;23.426;2022-12-18T03:44:14;74995.59;;;-140.58;100.00
17309;BME280;8772;42.804;23.426;2022-12-18T03:46:49;75001.75;;;-140.58;100.00
17309;BME280;8772;42.804;23.426;2022-12-18T03:49:24;74995.59;;;-140.58;100.00
17309;BME280;8772;42.804;23.426;2022-12-18T03:51:55;74995.59;;;-140.58;100.00
17309;BME280;8772;42.804;23.426;2022-12-18T03:54:26;75003.81;;;-140.58;100.00
17309;BME280;8772;42.804;23.426;2022-12-18T03:56:58;74999.69;;;-140.58;100.00
17309;BME280;8772;42.804;23.426;2022-12-18T03:59:29;74993.53;;;-140.58;100.00
17309;BME280;8772;42.804;23.426;2022-12-18T04:01:58;74999.69;;;-140.58;100.00
17309;BME280;8772;42.804;23.426;2022-12-18T04:04:27;74999.69;;;-140.58;100.00
17309;BME280;8772;42.804;23.426;2022-12-18T04:06:55;75003.81;;;-140.58;100.00
17309;BME280;8772;42.804;23.426;2022-12-18T04:09:24;74995.59;;;-140.58;100.00
17309;BME280;8772;42.804;23.426;2022-12-18T04:11:52;75003.81;;;-140.58;100.00
17309;BME280;8772;42.804;23.426;2022-12-18T04:14:19;75003.81;;;-140.58;100.00
17309;BME280;8772;42.804;23.426;2022-12-18T04:16:48;74999.69;;;-140.58;100.00
17309;BME280;8772;42.804;23.426;2022-12-18T04:19:15;75005.84;;;-140.58;100.00
17309;BME280;8772;42.804;23.426;2022-12-18T04:21:41;75007.91;;;-140.58;100.00
17309;BME280;8772;42.804;23.426;2022-12-18T04:24:08;75012.00;;;-140.58;100.00
17309;BME280;8772;42.804;23.426;2022-12-18T04:26:35;75022.28;;;-140.58;100.00
17309;BME280;8772;42.804;23.426;2022-12-18T04:29:02;75020.22;;;-140.58;100.00
17309;BME280;8772;42.804;23.426;2022-12-18T04:31:29;75032.53;;;-140.58;100.00
17309;BME280;8772;42.804;23.426;2022-12-18T04:33:58;75032.53;;;-140.58;100.00
17309;BME280;8772;42.804;23.426;2022-12-18T04:36:24;75044.84;;;-140.58;100.00
17309;BME280;8772;42.804;23.426;2022-12-18T04:38:51;75046.91;;;-140.58;100.00
17309;BME280;8772;42.804;23.426;2022-12-18T04:41:18;75053.06;;;-140.58;100.00
17309;BME280;8772;42.804;23.426;2022-12-18T04:43:45;75065.38;;;-140.58;100.00
17309;BME280;8772;42.804;23.426;2022-12-18T04:46:12;75081.78;;;-140.58;100.00
17309;BME280;8772;42.804;23.426;2022-12-18T04:48:39;75104.38;;;-140.58;100.00
17309;BME280;8772;42.804;23.426;2022-12-18T04:51:07;75098.22;;;-140.58;100.00
17309;BME280;8772;42.804;23.426;2022-12-18T04:53:34;75104.38;;;-140.58;100.00
17309;BME280;8772;42.804;23.426;2022-12-18T04:56:05;75118.72;;;-140.58;100.00
17309;BME280;8772;42.804;23.426;2022-12-18T04:58:33;75122.84;;;-140.58;100.00
17309;BME280;8772;42.804;23.426;2022-12-18T05:01:01;75141.31;;;-140.58;100.00
17309;BME280;8772;42.804;23.426;2022-12-18T05:03:28;75143.34;;;-140.58;100.00
17309;BME280;8772;42.804;23.426;2022-12-18T05:05:56;75143.34;;;-140.58;100.00
17309;BME280;8772;42.804;23.426;2022-12-18T05:08:24;75151.56;;;-140.58;100.00
17309;BME280;8772;42.804;23.426;2022-12-18T05:10:58;75143.34;;;-140.58;100.00
17309;BME280;8772;42.804;23.426;2022-12-18T05:13:25;75141.31;;;-140.58;100.00
17309;BME280;8772;42.804;23.426;2022-12-18T05:15:52;75135.16;;;-140.58;100.00
17309;BME280;8772;42.804;23.426;2022-12-18T05:18:19;75131.03;;;-140.58;100.00
17309;BME280;8772;42.804;23.426;2022-12-18T05:20:46;75151.56;;;-140.58;100.00
17309;BME280;8772;42.804;23.426;2022-12-18T05:23:13;75151.56;;;-140.58;100.00
17309;BME280;8772;42.804;23.426;2022-12-18T05:25:41;75151.56;;;-140.58;100.00
17309;BME280;8772;42.804;23.426;2022-12-18T05:28:08;75172.09;;;-140.58;100.00
17309;BME280;8772;42.804;23.426;2022-12-18T05:30:35;75174.13;;;-140.58;100.00
17309;BME280;8772;42.804;23.426;2022-12-18T05:33:02;75167.97;;;-140.58;100.00
17309;BME280;8772;42.804;23.426;2022-12-18T05:35:29;75167.97;;;-140.58;100.00
17309;BME280;8772;42.804;23.426;2022-12-18T05:37:55;75196.72;;;-140.58;100.00
17309;BME280;8772;42.804;23.426;2022-12-18T05:40:22;75206.97;;;-140.58;100.00
17309;BME280;8772;42.804;23.426;2022-12-18T05:42:53;75202.88;;;-140.58;100.00
17309;BME280;8772;42.804;23.426;2022-12-18T05:45:19;75204.94;;;-140.58;100.00
17309;BME280;8772;42.804;23.426;2022-12-18T05:47:46;75196.72;;;-140.58;100.00
17309;BME280;8772;42.804;23.426;2022-12-18T05:50:13;75196.72;;;-140.58;100.00
17309;BME280;8772;42.804;23.426;2022-12-18T05:52:40;75202.88;;;-140.58;100.00
17309;BME280;8772;42.804;23.426;2022-12-18T05:55:08;75202.88;;;-140.58;100.00
17309;BME280;8772;42.804;23.426;2022-12-18T05:57:34;75206.97;;;-140.58;100.00
17309;BME280;8772;42.804;23.426;2022-12-18T06:00:04;75213.13;;;-140.58;100.00
17309;BME280;8772;42.804;23.426;2022-12-18T06:02:30;75215.19;;;-140.58;100.00
17309;BME280;8772;42.804;23.426;2022-12-18T06:04:57;75225.44;;;-140.58;100.00
17309;BME280;8772;42.804;23.426;2022-12-18T06:07:24;75217.25;;;-140.58;100.00
17309;BME280;8772;42.804;23.426;2022-12-18T06:09:51;75213.13;;;-140.58;100.00
17309;BME280;8772;42.804;23.426;2022-12-18T06:12:18;75202.88;;;-140.58;100.00
17309;BME280;8772;42.804;23.426;2022-12-18T06:14:45;75209.03;;;-140.58;100.00
17309;BME280;8772;42.804;23.426;2022-12-18T06:17:13;75202.88;;;-140.58;100.00
17309;BME280;8772;42.804;23.426;2022-12-18T06:19:40;75200.81;;;-140.58;100.00
17309;BME280;8772;42.804;23.426;2022-12-18T06:22:07;75217.25;;;-140.58;100.00
17309;BME280;8772;42.804;23.426;2022-12-18T06:24:33;75217.25;;;-140.58;100.00
17309;BME280;8772;42.804;23.426;2022-12-18T06:27:00;75213.13;;;-140.58;100.00
17309;BME280;8772;42.804;23.426;2022-12-18T06:29:27;75206.97;;;-140.58;100.00
17309;BME280;8772;42.804;23.426;2022-12-18T06:31:54;75217.25;;;-140.58;100.00
17309;BME280;8772;42.804;23.426;2022-12-18T06:34:22;75209.03;;;-140.58;100.00
17309;BME280;8772;42.804;23.426;2022-12-18T06:36:49;75206.97;;;-140.58;100.00
17309;BME280;8772;42.804;23.426;2022-12-18T06:39:16;75200.81;;;-140.58;100.00
17309;BME280;8772;42.804;23.426;2022-12-18T06:41:43;75200.81;;;-140.58;100.00
17309;BME280;8772;42.804;23.426;2022-12-18T06:44:10;75204.94;;;-140.58;100.00
17309;BME280;8772;42.804;23.426;2022-12-18T06:46:37;75200.81;;;-140.58;100.00
17309;BME280;8772;42.804;23.426;2022-12-18T06:49:04;75196.72;;;-140.58;100.00
17309;BME280;8772;42.804;23.426;2022-12-18T06:51:32;75192.63;;;-140.58;100.00
17309;BME280;8772;42.804;23.426;2022-12-18T06:53:59;75196.72;;;-140.58;100.00
17309;BME280;8772;42.804;23.426;2022-12-18T06:56:26;75204.94;;;-140.58;100.00
17309;BME280;8772;42.804;23.426;2022-12-18T06:58:53;75213.13;;;-140.58;100.00
17309;BME280;8772;42.804;23.426;2022-12-18T07:01:21;75225.44;;;-140.58;100.00
17309;BME280;8772;42.804;23.426;2022-12-18T07:03:52;75215.19;;;-140.58;100.00
17309;BME280;8772;42.804;23.426;2022-12-18T07:06:21;75209.03;;;-140.58;100.00
17309;BME280;8772;42.804;23.426;2022-12-18T07:08:50;75211.09;;;-140.58;100.00
17309;BME280;8772;42.804;23.426;2022-12-18T07:11:18;75209.03;;;-140.58;100.00
17309;BME280;8772;42.804;23.426;2022-12-18T07:13:45;75196.72;;;-140.58;100.00
17309;BME280;8772;42.804;23.426;2022-12-18T07:16:15;75196.72;;;-140.58;100.00
17309;BME280;8772;42.804;23.426;2022-12-18T07:18:42;75200.81;;;-140.58;100.00
17309;BME280;8772;42.804;23.426;2022-12-18T07:21:10;75209.03;;;-140.58;100.00
17309;BME280;8772;42.804;23.426;2022-12-18T07:23:37;75221.34;;;-140.58;100.00
17309;BME280;8772;42.804;23.426;2022-12-18T07:26:08;75221.34;;;-140.58;100.00
17309;BME280;8772;42.804;23.426;2022-12-18T07:28:36;75221.34;;;-140.58;100.00
17309;BME280;8772;42.804;23.426;2022-12-18T07:31:04;75225.44;;;-140.58;100.00
17309;BME280;8772;42.804;23.426;2022-12-18T07:33:32;75231.59;;;-140.58;100.00
17309;BME280;8772;42.804;23.426;2022-12-18T07:35:59;75233.66;;;-140.58;100.00
17309;BME280;8772;42.804;23.426;2022-12-18T07:38:26;75241.88;;;-140.58;100.00
17309;BME280;8772;42.804;23.426;2022-12-18T07:40:53;75243.91;;;-140.58;100.00
17309;BME280;8772;42.804;23.426;2022-12-18T07:43:24;75250.06;;;-140.58;100.00
17309;BME280;8772;42.804;23.426;2022-12-18T07:45:51;75250.06;;;-140.58;100.00
17309;BME280;8772;42.804;23.426;2022-12-18T07:48:19;75245.97;;;-140.58;100.00
17309;BME280;8772;42.804;23.426;2022-12-18T07:50:46;75252.13;;;-140.58;100.00
17309;BME280;8772;42.804;23.426;2022-12-18T07:53:13;75254.19;;;-140.58;100.00
17309;BME280;8772;42.804;23.426;2022-12-18T07:55:40;75258.28;;;-140.58;100.00
17309;BME280;8772;42.804;23.426;2022-12-18T07:58:08;75262.38;;;-140.58;100.00
17309;BME280;8772;42.804;23.426;2022-12-18T08:00:36;75264.44;;;-140.58;100.00
17309;BME280;8772;42.804;23.426;2022-12-18T08:03:03;75274.69;;;-140.58;100.00
17309;BME280;8772;42.804;23.426;2022-12-18T08:05:30;75264.44;;;-140.58;100.00
17309;BME280;8772;42.804;23.426;2022-12-18T08:07:58;75274.69;;;-140.58;100.00
17309;BME280;8772;42.804;23.426;2022-12-18T08:10:25;75282.91;;;-140.58;100.00
17309;BME280;8772;42.804;23.426;2022-12-18T08:12:52;75282.91;;;-140.58;100.00
17309;BME280;8772;42.804;23.426;2022-12-18T08:15:19;75287.03;;;-140.58;100.00
17309;BME280;8772;42.804;23.426;2022-12-18T08:17:47;75291.13;;;-140.58;100.00
17309;BME280;8772;42.804;23.426;2022-12-18T08:20:14;75299.34;;;-140.58;100.00
17309;BME280;8772;42.804;23.426;2022-12-18T08:22:41;75295.22;;;-140.58;100.00
17309;BME280;8772;42.804;23.426;2022-12-18T08:25:09;75301.38;;;-140.58;100.00
17309;BME280;8772;42.804;23.426;2022-12-18T08:27:36;75307.53;;;-140.58;100.00
17309;BME280;8772;42.804;23.426;2022-12-18T08:30:04;75319.84;;;-140.58;100.00
17309;BME280;8772;42.804;23.426;2022-12-18T08:32:31;75332.16;;;-140.58;100.00
17309;BME280;8772;42.804;23.426;2022-12-18T08:35:00;75340.38;;;-140.58;100.00
17309;BME280;8772;42.804;23.426;2022-12-18T08:37:27;75342.44;;;-140.58;100.00
17309;BME280;8772;42.804;23.426;2022-12-18T08:39:54;75360.91;;;-140.58;100.00
17309;BME280;8772;42.804;23.426;2022-12-18T08:42:21;75358.84;;;-140.58;100.00
17309;BME280;8772;42.804;23.426;2022-12-18T08:45:06;75344.47;;;-140.58;100.00
17309;BME280;8772;42.804;23.426;2022-12-18T08:47:33;75354.75;;;-140.58;100.00
17309;BME280;8772;42.804;23.426;2022-12-18T08:50:02;75342.44;;;-140.58;100.00
17309;BME280;8772;42.804;23.426;2022-12-18T08:52:31;75346.53;;;-140.58;100.00
17309;BME280;8772;42.804;23.426;2022-12-18T08:54:58;75344.47;;;-140.58;100.00
17309;BME280;8772;42.804;23.426;2022-12-18T08:57:24;75344.47;;;-140.58;100.00
17309;BME280;8772;42.804;23.426;2022-12-18T08:59:51;75336.28;;;-140.58;100.00
17309;BME280;8772;42.804;23.426;2022-12-18T09:02:18;75328.06;;;-140.58;100.00
17309;BME280;8772;42.804;23.426;2022-12-18T09:04:47;75319.84;;;-140.58;100.00
17309;BME280;8772;42.804;23.426;2022-12-18T09:07:15;75328.06;;;-140.58;100.00
17309;BME280;8772;42.804;23.426;2022-12-18T09:09:42;75323.97;;;-140.58;100.00
17309;BME280;8772;42.804;23.426;2022-12-18T09:12:09;75334.22;;;-140.58;100.00
17309;BME280;8772;42.804;23.426;2022-12-18T09:14:36;75311.66;;;-140.58;100.00
17309;BME280;8772;42.804;23.426;2022-12-18T09:17:03;75321.91;;;-140.58;100.00
17309;BME280;8772;42.804;23.426;2022-12-18T09:19:30;75317.81;;;-140.58;100.00
17309;BME280;8772;42.804;23.426;2022-12-18T09:21:57;75305.50;;;-140.58;100.00
17309;BME280;8772;42.804;23.426;2022-12-18T09:24:25;75315.75;;;-140.58;100.00
17309;BME280;8772;42.804;23.426;2022-12-18T09:26:53;75313.69;;;-140.58;100.00
17309;BME280;8772;42.804;23.426;2022-12-18T09:29:20;75307.53;;;-140.58;100.00
17309;BME280;8772;42.804;23.426;2022-12-18T09:31:47;75305.50;;;-140.58;100.00
17309;BME280;8772;42.804;23.426;2022-12-18T09:34:14;75307.53;;;-140.58;100.00
17309;BME280;8772;42.804;23.426;2022-12-18T09:36:42;75291.13;;;-140.58;100.00
17309;BME280;8772;42.804;23.426;2022-12-18T09:39:09;75291.13;;;-140.58;100.00
17309;BME280;8772;42.804;23.426;2022-12-18T09:41:41;75291.13;;;-140.58;100.00
17309;BME280;8772;42.804;23.426;2022-12-18T09:44:18;75291.13;;;-140.58;100.00
17309;BME280;8772;42.804;23.426;2022-12-18T09:46:51;75289.06;;;-140.58;100.00
17309;BME280;8772;42.804;23.426;2022-12-18T09:49:23;75289.06;;;-140.58;100.00
17309;BME280;8772;42.804;23.426;2022-12-18T09:51:56;75284.97;;;-140.58;100.00
17309;BME280;8772;42.804;23.426;2022-12-18T09:54:28;75274.69;;;-140.58;100.00
17309;BME280;8772;42.804;23.426;2022-12-18T09:57:00;75274.69;;;-140.58;100.00
17309;BME280;8772;42.804;23.426;2022-12-18T09:59:30;75274.69;;;-140.58;100.00
17309;BME280;8772;42.804;23.426;2022-12-18T10:01:58;75266.50;;;-140.58;100.00
17309;BME280;8772;42.804;23.426;2022-12-18T10:04:28;75262.38;;;-140.58;100.00
17309;BME280;8772;42.804;23.426;2022-12-18T10:07:02;75262.38;;;-140.58;100.00
17309;BME280;8772;42.804;23.426;2022-12-18T10:09:40;75245.97;;;-140.58;100.00
17309;BME280;8772;42.804;23.426;2022-12-18T10:12:18;75245.97;;;-140.58;100.00
17309;BME280;8772;42.804;23.426;2022-12-18T10:14:51;75237.75;;;-140.58;100.00
17309;BME280;8772;42.804;23.426;2022-12-18T10:17:26;75237.75;;;-140.58;100.00
17309;BME280;8772;42.804;23.426;2022-12-18T10:19:58;75237.75;;;-140.58;100.00
17309;BME280;8772;42.804;23.426;2022-12-18T10:25:21;75225.44;;;-140.58;100.00
17309;BME280;8772;42.804;23.426;2022-12-18T10:27:53;75225.44;;;-140.58;100.00
17309;BME280;8772;42.804;23.426;2022-12-18T10:30:23;75233.66;;;-140.58;100.00
17309;BME280;8772;42.804;23.426;2022-12-18T10:32:50;75233.66;;;-140.58;100.00
17309;BME280;8772;42.804;23.426;2022-12-18T10:35:20;75217.25;;;-140.58;100.00
17309;BME280;8772;42.804;23.426;2022-12-18T10:38:05;75213.13;;;-140.58;100.00
17309;BME280;8772;42.804;23.426;2022-12-18T10:40:47;75219.28;;;-140.58;100.00
17309;BME280;8772;42.804;23.426;2022-12-18T10:43:20;75217.25;;;-140.58;100.00
17309;BME280;8772;42.804;23.426;2022-12-18T10:46:12;75217.25;;;-140.58;100.00
17309;BME280;8772;42.804;23.426;2022-12-18T10:48:52;75217.25;;;-140.58;100.00
17309;BME280;8772;42.804;23.426;2022-12-18T10:51:23;75211.09;;;-140.58;100.00
17309;BME280;8772;42.804;23.426;2022-12-18T10:54:07;75204.94;;;-140.58;100.00
17309;BME280;8772;42.804;23.426;2022-12-18T10:56:40;75200.81;;;-140.58;100.00
17309;BME280;8772;42.804;23.426;2022-12-18T10:59:11;75200.81;;;-140.58;100.00
17309;BME280;8772;42.804;23.426;2022-12-18T11:01:51;75192.63;;;-140.58;100.00
17309;BME280;8772;42.804;23.426;2022-12-18T11:04:22;75196.72;;;-140.58;100.00
17309;BME280;8772;42.804;23.426;2022-12-18T11:06:57;75186.44;;;-140.58;100.00
17309;BME280;8772;42.804;23.426;2022-12-18T11:09:26;75192.63;;;-140.58;100.00
17309;BME280;8772;42.804;23.426;2022-12-18T11:11:55;75196.72;;;-140.58;100.00
17309;BME280;8772;42.804;23.426;2022-12-18T11:14:28;75192.63;;;-140.58;100.00
17309;BME280;8772;42.804;23.426;2022-12-18T11:16:56;75184.41;;;-140.58;100.00
17309;BME280;8772;42.804;23.426;2022-12-18T11:19:30;75172.09;;;-140.58;100.00
17309;BME280;8772;42.804;23.426;2022-12-18T11:21:58;75163.88;;;-140.58;100.00
17309;BME280;8772;42.804;23.426;2022-12-18T11:24:29;75155.66;;;-140.58;100.00
17309;BME280;8772;42.804;23.426;2022-12-18T11:26:59;75151.56;;;-140.58;100.00
17309;BME280;8772;42.804;23.426;2022-12-18T11:29:32;75149.50;;;-140.58;100.00
17309;BME280;8772;42.804;23.426;2022-12-18T11:32:29;75143.34;;;-140.58;100.00
17309;BME280;8772;42.804;23.426;2022-12-18T11:35:01;75135.16;;;-140.58;100.00
17309;BME280;8772;42.804;23.426;2022-12-18T11:37:30;75135.16;;;-140.58;100.00
17309;BME280;8772;42.804;23.426;2022-12-18T11:40:01;75135.16;;;-140.58;100.00
17309;BME280;8772;42.804;23.426;2022-12-18T11:42:35;75131.03;;;-140.58;100.00
17309;BME280;8772;42.804;23.426;2022-12-18T11:45:22;75131.03;;;-140.58;100.00
17309;BME280;8772;42.804;23.426;2022-12-18T11:47:56;75143.34;;;-140.58;100.00
17309;BME280;8772;42.804;23.426;2022-12-18T11:50:25;75137.19;;;-140.58;100.00
17309;BME280;8772;42.804;23.426;2022-12-18T11:52:53;75135.16;;;-140.58;100.00
17309;BME280;8772;42.804;23.426;2022-12-18T11:55:28;75133.09;;;-140.58;100.00
17309;BME280;8772;42.804;23.426;2022-12-18T11:58:02;75126.94;;;-140.58;100.00
17309;BME280;8772;42.804;23.426;2022-12-18T12:00:37;75124.88;;;-140.58;100.00
17309;BME280;8772;42.804;23.426;2022-12-18T12:06:09;75131.03;;;-140.58;100.00
17309;BME280;8772;42.804;23.426;2022-12-18T12:08:51;75122.84;;;-140.58;100.00
17309;BME280;8772;42.804;23.426;2022-12-18T12:11:28;75120.78;;;-140.58;100.00
17309;BME280;8772;42.804;23.426;2022-12-18T12:14:12;75114.63;;;-140.58;100.00
17309;BME280;8772;42.804;23.426;2022-12-18T12:16:51;75147.47;;;-140.58;100.00
17309;BME280;8772;42.804;23.426;2022-12-18T12:19:32;75135.16;;;-140.58;100.00
17309;BME280;8772;42.804;23.426;2022-12-18T12:22:08;75143.34;;;-140.58;100.00
17309;BME280;8772;42.804;23.426;2022-12-18T12:24:48;75174.13;;;-140.58;100.00
17309;BME280;8772;42.804;23.426;2022-12-18T12:27:22;75172.09;;;-140.58;100.00
17309;BME280;8772;42.804;23.426;2022-12-18T12:30:02;75176.19;;;-140.58;100.00
17309;BME280;8772;42.804;23.426;2022-12-18T12:35:31;75174.13;;;-140.58;100.00
17309;BME280;8772;42.804;23.426;2022-12-18T12:38:06;75176.19;;;-140.58;100.00
17309;BME280;8772;42.804;23.426;2022-12-18T12:40:36;75174.13;;;-140.58;100.00
17309;BME280;8772;42.804;23.426;2022-12-18T12:43:16;75176.19;;;-140.58;100.00
17309;BME280;8772;42.804;23.426;2022-12-18T12:45:49;75167.97;;;-140.58;100.00
17309;BME280;8772;42.804;23.426;2022-12-18T12:48:27;75159.78;;;-140.58;100.00
17309;BME280;8772;42.804;23.426;2022-12-18T12:50:58;75172.09;;;-140.58;100.00
17309;BME280;8772;42.804;23.426;2022-12-18T12:53:30;75159.78;;;-140.58;100.00
17309;BME280;8772;42.804;23.426;2022-12-18T12:55:59;75165.94;;;-140.58;100.00
17309;BME280;8772;42.804;23.426;2022-12-18T12:58:33;75163.88;;;-140.58;100.00